Ashburn, Georgia
Current Conditions -  °F | °C
As of 9:35 PM on Wednesday 22 Oct 2014 (Local Time) from KCKF Reporting Station
Clear Clear  
Wind Chill: 54°   Ceiling: Unl
Heat Index: 54°   Visibility: 10mi
Dew Point: 49°   Wind: 0mph
Humidity: 85%   Direction: NA
Pressure: 30.09"   Gusts: NA
Location:  31.71°N, 83.65°W
Report Text: KCKF 230135Z AUTO 00000KT 10SM CLR 12/10 A3009 RMK AO2 T01200095
Loading
Personal Weather Stations






























Interactive Weather Map
Tropical Storm Tracking
New forecast layout! Learn more

10-Day Weather Forecast

Advertisements
Track Severe Weather on mobile